sensor_id;sensor_type;location;lat;lon;timestamp;temperature;humidity
38380;DHT22;38377;47.418;18.882;2023-04-15T00:00:29;5.10;99.90
38380;DHT22;38377;47.418;18.882;2023-04-15T00:02:55;5.00;99.90
38380;DHT22;38377;47.418;18.882;2023-04-15T00:05:21;5.10;99.90
38380;DHT22;38377;47.418;18.882;2023-04-15T00:07:47;5.10;99.90
38380;DHT22;38377;47.418;18.882;2023-04-15T00:10:12;5.10;99.90
38380;DHT22;38377;47.418;18.882;2023-04-15T00:12:39;5.10;99.90
38380;DHT22;38377;47.418;18.882;2023-04-15T00:15:06;5.10;99.90
38380;DHT22;38377;47.418;18.882;2023-04-15T00:17:33;5.10;99.90
38380;DHT22;38377;47.418;18.882;2023-04-15T00:19:59;5.10;99.90
38380;DHT22;38377;47.418;18.882;2023-04-15T00:22:26;5.10;99.90
38380;DHT22;38377;47.418;18.882;2023-04-15T00:24:52;5.20;99.90
38380;DHT22;38377;47.418;18.882;2023-04-15T00:27:18;5.10;99.90
38380;DHT22;38377;47.418;18.882;2023-04-15T00:29:44;5.20;99.90
38380;DHT22;38377;47.418;18.882;2023-04-15T00:32:13;5.20;99.90
38380;DHT22;38377;47.418;18.882;2023-04-15T00:34:40;5.20;99.90
38380;DHT22;38377;47.418;18.882;2023-04-15T00:37:06;5.20;99.90
38380;DHT22;38377;47.418;18.882;2023-04-15T00:39:31;5.20;99.90
38380;DHT22;38377;47.418;18.882;2023-04-15T00:41:57;5.30;99.90
38380;DHT22;38377;47.418;18.882;2023-04-15T00:44:23;5.30;99.90
38380;DHT22;38377;47.418;18.882;2023-04-15T00:46:50;5.30;99.90
38380;DHT22;38377;47.418;18.882;2023-04-15T00:49:16;5.30;99.90
38380;DHT22;38377;47.418;18.882;2023-04-15T00:51:45;5.40;99.90
38380;DHT22;38377;47.418;18.882;2023-04-15T00:54:11;5.40;99.90
38380;DHT22;38377;47.418;18.882;2023-04-15T00:56:37;5.50;99.90
38380;DHT22;38377;47.418;18.882;2023-04-15T00:59:05;5.50;99.90
38380;DHT22;38377;47.418;18.882;2023-04-15T01:01:33;5.50;99.90
38380;DHT22;38377;47.418;18.882;2023-04-15T01:04:00;5.50;99.90
38380;DHT22;38377;47.418;18.882;2023-04-15T01:06:26;5.50;99.90
38380;DHT22;38377;47.418;18.882;2023-04-15T01:08:53;5.50;99.90
38380;DHT22;38377;47.418;18.882;2023-04-15T01:11:20;5.50;99.90
38380;DHT22;38377;47.418;18.882;2023-04-15T01:13:49;5.60;99.90
38380;DHT22;38377;47.418;18.882;2023-04-15T01:16:15;5.60;99.90
38380;DHT22;38377;47.418;18.882;2023-04-15T01:18:41;5.60;99.90
38380;DHT22;38377;47.418;18.882;2023-04-15T01:21:07;5.60;99.90
38380;DHT22;38377;47.418;18.882;2023-04-15T01:23:35;5.60;99.90
38380;DHT22;38377;47.418;18.882;2023-04-15T01:26:03;5.70;99.90
38380;DHT22;38377;47.418;18.882;2023-04-15T01:28:28;5.70;99.90
38380;DHT22;38377;47.418;18.882;2023-04-15T01:31:09;5.70;99.90
38380;DHT22;38377;47.418;18.882;2023-04-15T01:33:36;5.70;99.90
38380;DHT22;38377;47.418;18.882;2023-04-15T01:36:03;5.70;99.90
38380;DHT22;38377;47.418;18.882;2023-04-15T01:38:33;5.80;99.90
38380;DHT22;38377;47.418;18.882;2023-04-15T01:40:59;5.80;99.90
38380;DHT22;38377;47.418;18.882;2023-04-15T01:43:25;5.80;99.90
38380;DHT22;38377;47.418;18.882;2023-04-15T01:45:51;5.80;99.90
38380;DHT22;38377;47.418;18.882;2023-04-15T01:48:17;5.80;99.90
38380;DHT22;38377;47.418;18.882;2023-04-15T01:50:43;5.90;99.90
38380;DHT22;38377;47.418;18.882;2023-04-15T01:53:09;5.90;99.90
38380;DHT22;38377;47.418;18.882;2023-04-15T01:55:35;5.80;99.90
38380;DHT22;38377;47.418;18.882;2023-04-15T01:58:01;5.90;99.90
38380;DHT22;38377;47.418;18.882;2023-04-15T02:00:27;5.90;99.90
38380;DHT22;38377;47.418;18.882;2023-04-15T02:02:53;5.90;99.90
38380;DHT22;38377;47.418;18.882;2023-04-15T02:05:19;5.90;99.90
38380;DHT22;38377;47.418;18.882;2023-04-15T02:07:45;5.90;99.90
38380;DHT22;38377;47.418;18.882;2023-04-15T02:10:10;5.90;99.90
38380;DHT22;38377;47.418;18.882;2023-04-15T02:12:39;5.90;99.90
38380;DHT22;38377;47.418;18.882;2023-04-15T02:15:05;6.00;99.90
38380;DHT22;38377;47.418;18.882;2023-04-15T02:17:35;6.00;99.90
38380;DHT22;38377;47.418;18.882;2023-04-15T02:20:02;6.00;99.90
38380;DHT22;38377;47.418;18.882;2023-04-15T02:22:30;6.00;99.90
38380;DHT22;38377;47.418;18.882;2023-04-15T02:24:56;5.90;99.90
38380;DHT22;38377;47.418;18.882;2023-04-15T02:27:22;6.00;99.90
38380;DHT22;38377;47.418;18.882;2023-04-15T02:29:48;6.00;99.90
38380;DHT22;38377;47.418;18.882;2023-04-15T02:32:15;6.00;99.90
38380;DHT22;38377;47.418;18.882;2023-04-15T02:34:41;6.00;99.90
38380;DHT22;38377;47.418;18.882;2023-04-15T02:37:12;6.10;99.90
38380;DHT22;38377;47.418;18.882;2023-04-15T02:39:37;6.00;99.90
38380;DHT22;38377;47.418;18.882;2023-04-15T02:42:03;6.00;99.90
38380;DHT22;38377;47.418;18.882;2023-04-15T02:44:30;6.10;99.90
38380;DHT22;38377;47.418;18.882;2023-04-15T02:46:57;6.00;99.90
38380;DHT22;38377;47.418;18.882;2023-04-15T02:49:24;6.10;99.90
38380;DHT22;38377;47.418;18.882;2023-04-15T02:51:50;6.00;99.90
38380;DHT22;38377;47.418;18.882;2023-04-15T02:54:19;6.00;99.90
38380;DHT22;38377;47.418;18.882;2023-04-15T02:56:45;6.00;99.90
38380;DHT22;38377;47.418;18.882;2023-04-15T02:59:11;6.00;99.90
38380;DHT22;38377;47.418;18.882;2023-04-15T03:01:37;6.00;99.90
38380;DHT22;38377;47.418;18.882;2023-04-15T03:04:03;6.00;99.90
38380;DHT22;38377;47.418;18.882;2023-04-15T03:06:29;6.00;99.90
38380;DHT22;38377;47.418;18.882;2023-04-15T03:08:55;6.00;99.90
38380;DHT22;38377;47.418;18.882;2023-04-15T03:11:21;6.00;99.90
38380;DHT22;38377;47.418;18.882;2023-04-15T03:13:47;6.00;99.90
38380;DHT22;38377;47.418;18.882;2023-04-15T03:16:13;6.00;99.90
38380;DHT22;38377;47.418;18.882;2023-04-15T03:18:39;6.00;99.90
38380;DHT22;38377;47.418;18.882;2023-04-15T03:21:05;6.00;99.90
38380;DHT22;38377;47.418;18.882;2023-04-15T03:23:31;6.00;99.90
38380;DHT22;38377;47.418;18.882;2023-04-15T03:25:57;6.00;99.90
38380;DHT22;38377;47.418;18.882;2023-04-15T03:28:24;6.00;99.90
38380;DHT22;38377;47.418;18.882;2023-04-15T03:30:50;6.00;99.90
38380;DHT22;38377;47.418;18.882;2023-04-15T03:33:18;6.00;99.90
38380;DHT22;38377;47.418;18.882;2023-04-15T03:35:44;6.00;99.90
38380;DHT22;38377;47.418;18.882;2023-04-15T03:38:10;6.00;99.90
38380;DHT22;38377;47.418;18.882;2023-04-15T03:40:35;5.90;99.90
38380;DHT22;38377;47.418;18.882;2023-04-15T03:43:01;6.00;99.90
38380;DHT22;38377;47.418;18.882;2023-04-15T03:45:27;6.00;99.90
38380;DHT22;38377;47.418;18.882;2023-04-15T03:47:53;6.00;99.90
38380;DHT22;38377;47.418;18.882;2023-04-15T03:50:18;6.00;99.90
38380;DHT22;38377;47.418;18.882;2023-04-15T03:52:44;6.00;99.90
38380;DHT22;38377;47.418;18.882;2023-04-15T03:55:10;6.00;99.90
38380;DHT22;38377;47.418;18.882;2023-04-15T03:57:36;6.00;99.90
38380;DHT22;38377;47.418;18.882;2023-04-15T04:00:04;6.00;99.90
38380;DHT22;38377;47.418;18.882;2023-04-15T04:02:30;6.00;99.90
38380;DHT22;38377;47.418;18.882;2023-04-15T04:04:56;6.00;99.90
38380;DHT22;38377;47.418;18.882;2023-04-15T04:07:22;6.00;99.90
38380;DHT22;38377;47.418;18.882;2023-04-15T04:09:48;6.00;99.90
38380;DHT22;38377;47.418;18.882;2023-04-15T04:12:14;6.00;99.90
38380;DHT22;38377;47.418;18.882;2023-04-15T04:14:41;6.10;99.90
38380;DHT22;38377;47.418;18.882;2023-04-15T04:17:07;6.10;99.90
38380;DHT22;38377;47.418;18.882;2023-04-15T04:19:33;6.10;99.90
38380;DHT22;38377;47.418;18.882;2023-04-15T04:21:59;6.10;99.90
38380;DHT22;38377;47.418;18.882;2023-04-15T04:24:25;6.10;99.90
38380;DHT22;38377;47.418;18.882;2023-04-15T04:26:51;6.20;99.90
38380;DHT22;38377;47.418;18.882;2023-04-15T04:29:16;6.10;99.90
38380;DHT22;38377;47.418;18.882;2023-04-15T04:31:42;6.20;99.90
38380;DHT22;38377;47.418;18.882;2023-04-15T04:34:08;6.20;99.90
38380;DHT22;38377;47.418;18.882;2023-04-15T04:37:14;6.20;99.90
38380;DHT22;38377;47.418;18.882;2023-04-15T04:39:40;6.20;99.90
38380;DHT22;38377;47.418;18.882;2023-04-15T04:42:06;6.30;99.90
38380;DHT22;38377;47.418;18.882;2023-04-15T04:44:32;6.30;99.90
38380;DHT22;38377;47.418;18.882;2023-04-15T04:46:57;6.30;99.90
38380;DHT22;38377;47.418;18.882;2023-04-15T04:49:23;6.30;99.90
38380;DHT22;38377;47.418;18.882;2023-04-15T04:51:50;6.40;99.90
38380;DHT22;38377;47.418;18.882;2023-04-15T04:54:17;6.40;99.90
38380;DHT22;38377;47.418;18.882;2023-04-15T04:56:42;6.50;99.90
38380;DHT22;38377;47.418;18.882;2023-04-15T04:59:08;6.50;99.90
38380;DHT22;38377;47.418;18.882;2023-04-15T05:01:34;6.50;99.90
38380;DHT22;38377;47.418;18.882;2023-04-15T05:04:21;6.50;99.90
38380;DHT22;38377;47.418;18.882;2023-04-15T05:06:46;6.50;99.90
38380;DHT22;38377;47.418;18.882;2023-04-15T05:09:12;6.60;99.90
38380;DHT22;38377;47.418;18.882;2023-04-15T05:11:40;6.60;99.90
38380;DHT22;38377;47.418;18.882;2023-04-15T05:14:06;6.70;99.90
38380;DHT22;38377;47.418;18.882;2023-04-15T05:16:32;6.70;99.90
38380;DHT22;38377;47.418;18.882;2023-04-15T05:18:57;6.70;99.90
38380;DHT22;38377;47.418;18.882;2023-04-15T05:21:24;6.70;99.90
38380;DHT22;38377;47.418;18.882;2023-04-15T05:23:50;6.80;99.90
38380;DHT22;38377;47.418;18.882;2023-04-15T05:26:16;6.80;99.90
38380;DHT22;38377;47.418;18.882;2023-04-15T05:28:42;6.90;99.90
38380;DHT22;38377;47.418;18.882;2023-04-15T05:31:08;6.80;99.90
38380;DHT22;38377;47.418;18.882;2023-04-15T05:33:34;6.80;99.90
38380;DHT22;38377;47.418;18.882;2023-04-15T05:36:00;6.80;99.90
38380;DHT22;38377;47.418;18.882;2023-04-15T05:38:25;6.80;99.90
38380;DHT22;38377;47.418;18.882;2023-04-15T05:40:51;6.80;99.90
38380;DHT22;38377;47.418;18.882;2023-04-15T05:43:17;6.90;99.90
38380;DHT22;38377;47.418;18.882;2023-04-15T05:45:42;6.90;99.90
38380;DHT22;38377;47.418;18.882;2023-04-15T05:48:08;7.00;99.90
38380;DHT22;38377;47.418;18.882;2023-04-15T05:50:34;7.30;99.90
38380;DHT22;38377;47.418;18.882;2023-04-15T05:53:00;7.50;99.90
38380;DHT22;38377;47.418;18.882;2023-04-15T05:55:26;7.70;99.90
38380;DHT22;38377;47.418;18.882;2023-04-15T05:57:52;7.80;99.90
38380;DHT22;38377;47.418;18.882;2023-04-15T06:00:17;7.90;99.90
38380;DHT22;38377;47.418;18.882;2023-04-15T06:02:43;8.00;99.90
38380;DHT22;38377;47.418;18.882;2023-04-15T06:05:09;8.10;99.90
38380;DHT22;38377;47.418;18.882;2023-04-15T06:07:36;8.00;99.90
38380;DHT22;38377;47.418;18.882;2023-04-15T06:10:03;8.20;99.90
38380;DHT22;38377;47.418;18.882;2023-04-15T06:12:29;8.20;99.90
38380;DHT22;38377;47.418;18.882;2023-04-15T06:14:55;8.40;99.90
38380;DHT22;38377;47.418;18.882;2023-04-15T06:17:21;8.60;99.90
38380;DHT22;38377;47.418;18.882;2023-04-15T06:19:47;8.70;99.90
38380;DHT22;38377;47.418;18.882;2023-04-15T06:22:13;8.90;99.90
38380;DHT22;38377;47.418;18.882;2023-04-15T06:24:39;8.90;99.90
38380;DHT22;38377;47.418;18.882;2023-04-15T06:27:05;8.90;99.90
38380;DHT22;38377;47.418;18.882;2023-04-15T06:29:31;8.90;99.90
38380;DHT22;38377;47.418;18.882;2023-04-15T06:31:59;8.90;99.90
38380;DHT22;38377;47.418;18.882;2023-04-15T06:34:24;9.00;99.90
38380;DHT22;38377;47.418;18.882;2023-04-15T06:36:50;9.30;99.90
38380;DHT22;38377;47.418;18.882;2023-04-15T06:39:16;9.40;99.90
38380;DHT22;38377;47.418;18.882;2023-04-15T06:41:42;9.50;99.90
38380;DHT22;38377;47.418;18.882;2023-04-15T06:44:08;9.30;99.90
38380;DHT22;38377;47.418;18.882;2023-04-15T06:46:33;9.20;99.90
38380;DHT22;38377;47.418;18.882;2023-04-15T06:48:59;9.30;99.90
38380;DHT22;38377;47.418;18.882;2023-04-15T06:51:25;9.40;99.90
38380;DHT22;38377;47.418;18.882;2023-04-15T06:53:51;9.60;99.90
38380;DHT22;38377;47.418;18.882;2023-04-15T06:56:17;9.90;99.90
38380;DHT22;38377;47.418;18.882;2023-04-15T06:58:42;10.20;99.90
38380;DHT22;38377;47.418;18.882;2023-04-15T07:01:08;10.40;99.90
38380;DHT22;38377;47.418;18.882;2023-04-15T07:03:57;10.60;99.90
38380;DHT22;38377;47.418;18.882;2023-04-15T07:06:30;10.70;99.90
38380;DHT22;38377;47.418;18.882;2023-04-15T07:09:02;10.90;99.90
38380;DHT22;38377;47.418;18.882;2023-04-15T07:11:34;10.70;99.90
38380;DHT22;38377;47.418;18.882;2023-04-15T07:14:02;10.50;99.90
38380;DHT22;38377;47.418;18.882;2023-04-15T07:16:28;10.40;99.90
38380;DHT22;38377;47.418;18.882;2023-04-15T07:19:00;10.30;99.90
38380;DHT22;38377;47.418;18.882;2023-04-15T07:21:29;10.20;99.90
38380;DHT22;38377;47.418;18.882;2023-04-15T07:23:54;10.10;99.90
38380;DHT22;38377;47.418;18.882;2023-04-15T07:26:20;10.00;99.90
38380;DHT22;38377;47.418;18.882;2023-04-15T07:28:46;9.90;99.90
38380;DHT22;38377;47.418;18.882;2023-04-15T07:31:12;9.80;99.90
38380;DHT22;38377;47.418;18.882;2023-04-15T07:33:38;9.70;99.90
38380;DHT22;38377;47.418;18.882;2023-04-15T07:36:03;9.70;99.90
38380;DHT22;38377;47.418;18.882;2023-04-15T07:38:31;9.70;99.90
38380;DHT22;38377;47.418;18.882;2023-04-15T07:40:56;9.90;99.90
38380;DHT22;38377;47.418;18.882;2023-04-15T07:43:22;9.90;99.90
38380;DHT22;38377;47.418;18.882;2023-04-15T07:45:48;10.00;99.90
38380;DHT22;38377;47.418;18.882;2023-04-15T07:48:14;10.10;99.90
38380;DHT22;38377;47.418;18.882;2023-04-15T07:50:39;10.20;99.90
38380;DHT22;38377;47.418;18.882;2023-04-15T07:53:06;10.20;99.90
38380;DHT22;38377;47.418;18.882;2023-04-15T07:55:31;10.10;99.90
38380;DHT22;38377;47.418;18.882;2023-04-15T07:57:57;10.20;99.90
38380;DHT22;38377;47.418;18.882;2023-04-15T08:00:23;10.10;99.90
38380;DHT22;38377;47.418;18.882;2023-04-15T08:02:49;10.10;99.90
38380;DHT22;38377;47.418;18.882;2023-04-15T08:05:17;10.00;99.90
38380;DHT22;38377;47.418;18.882;2023-04-15T08:07:42;9.80;99.90
38380;DHT22;38377;47.418;18.882;2023-04-15T08:10:08;9.80;99.90
38380;DHT22;38377;47.418;18.882;2023-04-15T08:12:34;9.80;99.90
38380;DHT22;38377;47.418;18.882;2023-04-15T08:15:00;10.00;99.90
38380;DHT22;38377;47.418;18.882;2023-04-15T08:17:27;10.00;99.90
38380;DHT22;38377;47.418;18.882;2023-04-15T08:19:52;10.20;99.90
38380;DHT22;38377;47.418;18.882;2023-04-15T08:22:18;10.40;99.90
38380;DHT22;38377;47.418;18.882;2023-04-15T08:24:44;10.60;99.90
38380;DHT22;38377;47.418;18.882;2023-04-15T08:27:10;10.80;99.90
38380;DHT22;38377;47.418;18.882;2023-04-15T08:29:36;10.90;99.90
38380;DHT22;38377;47.418;18.882;2023-04-15T08:32:02;10.80;99.90
38380;DHT22;38377;47.418;18.882;2023-04-15T08:34:28;10.80;99.90
38380;DHT22;38377;47.418;18.882;2023-04-15T08:36:55;10.70;99.90
38380;DHT22;38377;47.418;18.882;2023-04-15T08:39:21;10.60;99.90
38380;DHT22;38377;47.418;18.882;2023-04-15T08:42:01;10.60;99.90
38380;DHT22;38377;47.418;18.882;2023-04-15T08:44:29;10.60;99.90
38380;DHT22;38377;47.418;18.882;2023-04-15T08:47:00;10.60;99.90
38380;DHT22;38377;47.418;18.882;2023-04-15T08:49:28;10.50;99.90
38380;DHT22;38377;47.418;18.882;2023-04-15T08:51:54;10.50;99.90
38380;DHT22;38377;47.418;18.882;2023-04-15T08:54:22;10.40;99.90
38380;DHT22;38377;47.418;18.882;2023-04-15T08:56:49;10.20;99.90
38380;DHT22;38377;47.418;18.882;2023-04-15T08:59:14;10.10;99.90
38380;DHT22;38377;47.418;18.882;2023-04-15T09:01:44;10.00;99.90
38380;DHT22;38377;47.418;18.882;2023-04-15T09:04:10;9.90;99.90
38380;DHT22;38377;47.418;18.882;2023-04-15T09:06:38;9.90;99.90
38380;DHT22;38377;47.418;18.882;2023-04-15T09:09:05;9.80;99.90
38380;DHT22;38377;47.418;18.882;2023-04-15T09:11:30;9.70;99.90
38380;DHT22;38377;47.418;18.882;2023-04-15T09:13:56;9.70;99.90
38380;DHT22;38377;47.418;18.882;2023-04-15T09:16:22;9.80;99.90
38380;DHT22;38377;47.418;18.882;2023-04-15T09:18:48;9.80;99.90
38380;DHT22;38377;47.418;18.882;2023-04-15T09:21:15;9.90;99.90
38380;DHT22;38377;47.418;18.882;2023-04-15T09:23:57;9.90;99.90
38380;DHT22;38377;47.418;18.882;2023-04-15T09:26:36;10.20;99.90
38380;DHT22;38377;47.418;18.882;2023-04-15T09:29:08;10.40;99.90
38380;DHT22;38377;47.418;18.882;2023-04-15T09:31:38;10.50;99.90
38380;DHT22;38377;47.418;18.882;2023-04-15T09:34:05;10.90;99.90
38380;DHT22;38377;47.418;18.882;2023-04-15T09:36:54;11.40;99.90
38380;DHT22;38377;47.418;18.882;2023-04-15T09:39:21;11.50;99.90
38380;DHT22;38377;47.418;18.882;2023-04-15T09:42:05;11.30;99.90
38380;DHT22;38377;47.418;18.882;2023-04-15T09:44:31;11.00;99.90
38380;DHT22;38377;47.418;18.882;2023-04-15T09:46:57;10.70;99.90
38380;DHT22;38377;47.418;18.882;2023-04-15T09:49:23;10.40;99.90
38380;DHT22;38377;47.418;18.882;2023-04-15T09:51:48;10.40;99.90
38380;DHT22;38377;47.418;18.882;2023-04-15T09:54:20;10.60;99.90
38380;DHT22;38377;47.418;18.882;2023-04-15T09:56:46;10.60;99.90
38380;DHT22;38377;47.418;18.882;2023-04-15T09:59:12;10.60;99.90
38380;DHT22;38377;47.418;18.882;2023-04-15T10:01:40;10.60;99.90
38380;DHT22;38377;47.418;18.882;2023-04-15T10:04:06;10.60;99.90
38380;DHT22;38377;47.418;18.882;2023-04-15T10:06:33;10.80;99.90
38380;DHT22;38377;47.418;18.882;2023-04-15T10:09:00;10.80;99.90
38380;DHT22;38377;47.418;18.882;2023-04-15T10:11:29;10.80;99.90
38380;DHT22;38377;47.418;18.882;2023-04-15T10:13:56;10.80;99.90
38380;DHT22;38377;47.418;18.882;2023-04-15T10:16:26;10.80;99.90
38380;DHT22;38377;47.418;18.882;2023-04-15T10:18:56;10.70;99.90
38380;DHT22;38377;47.418;18.882;2023-04-15T10:21:26;10.70;99.90
38380;DHT22;38377;47.418;18.882;2023-04-15T10:23:52;10.60;99.90
38380;DHT22;38377;47.418;18.882;2023-04-15T10:26:18;10.40;99.90
38380;DHT22;38377;47.418;18.882;2023-04-15T10:28:45;10.40;99.90
38380;DHT22;38377;47.418;18.882;2023-04-15T10:31:14;10.30;99.90
38380;DHT22;38377;47.418;18.882;2023-04-15T10:33:40;10.30;99.90
38380;DHT22;38377;47.418;18.882;2023-04-15T10:36:07;10.30;99.90
38380;DHT22;38377;47.418;18.882;2023-04-15T10:38:43;10.30;99.90
38380;DHT22;38377;47.418;18.882;2023-04-15T10:41:22;10.30;99.90
38380;DHT22;38377;47.418;18.882;2023-04-15T10:44:02;10.10;99.90
38380;DHT22;38377;47.418;18.882;2023-04-15T10:46:41;10.00;99.90
38380;DHT22;38377;47.418;18.882;2023-04-15T10:49:14;10.00;99.90
38380;DHT22;38377;47.418;18.882;2023-04-15T10:51:44;10.10;99.90
38380;DHT22;38377;47.418;18.882;2023-04-15T10:57:07;10.30;99.90
38380;DHT22;38377;47.418;18.882;2023-04-15T10:59:37;10.30;99.90
38380;DHT22;38377;47.418;18.882;2023-04-15T11:02:06;10.30;99.90
38380;DHT22;38377;47.418;18.882;2023-04-15T11:04:52;10.30;99.90
38380;DHT22;38377;47.418;18.882;2023-04-15T11:12:44;10.40;99.90
38380;DHT22;38377;47.418;18.882;2023-04-15T11:15:32;10.30;99.90
38380;DHT22;38377;47.418;18.882;2023-04-15T11:18:07;10.40;99.90
38380;DHT22;38377;47.418;18.882;2023-04-15T11:20:34;10.40;99.90
38380;DHT22;38377;47.418;18.882;2023-04-15T11:22:59;10.50;99.90
38380;DHT22;38377;47.418;18.882;2023-04-15T11:25:27;10.50;99.90
38380;DHT22;38377;47.418;18.882;2023-04-15T11:27:54;10.50;99.90
38380;DHT22;38377;47.418;18.882;2023-04-15T11:30:24;10.50;99.90
38380;DHT22;38377;47.418;18.882;2023-04-15T11:32:52;10.40;99.90
38380;DHT22;38377;47.418;18.882;2023-04-15T11:35:19;10.50;99.90
38380;DHT22;38377;47.418;18.882;2023-04-15T11:37:45;10.50;99.90
38380;DHT22;38377;47.418;18.882;2023-04-15T11:40:11;10.30;99.90
38380;DHT22;38377;47.418;18.882;2023-04-15T11:42:38;10.30;99.90
38380;DHT22;38377;47.418;18.882;2023-04-15T11:45:11;10.30;99.90
38380;DHT22;38377;47.418;18.882;2023-04-15T11:47:41;10.40;99.90
38380;DHT22;38377;47.418;18.882;2023-04-15T11:50:34;10.50;99.90
38380;DHT22;38377;47.418;18.882;2023-04-15T11:53:03;10.40;99.90
38380;DHT22;38377;47.418;18.882;2023-04-15T11:55:29;10.40;99.90
38380;DHT22;38377;47.418;18.882;2023-04-15T11:58:13;10.50;99.90
38380;DHT22;38377;47.418;18.882;2023-04-15T12:00:45;10.60;99.90
38380;DHT22;38377;47.418;18.882;2023-04-15T12:03:12;10.70;99.90
38380;DHT22;38377;47.418;18.882;2023-04-15T12:11:36;10.50;99.90
38380;DHT22;38377;47.418;18.882;2023-04-15T12:14:07;10.50;99.90
38380;DHT22;38377;47.418;18.882;2023-04-15T12:16:35;10.60;99.90
38380;DHT22;38377;47.418;18.882;2023-04-15T12:19:05;10.90;99.90
38380;DHT22;38377;47.418;18.882;2023-04-15T12:21:36;11.00;99.90
38380;DHT22;38377;47.418;18.882;2023-04-15T12:24:04;10.90;99.90
38380;DHT22;38377;47.418;18.882;2023-04-15T12:29:11;11.10;99.90
38380;DHT22;38377;47.418;18.882;2023-04-15T12:31:46;11.10;99.90
38380;DHT22;38377;47.418;18.882;2023-04-15T12:34:13;11.10;99.90
38380;DHT22;38377;47.418;18.882;2023-04-15T12:36:39;11.10;99.90
38380;DHT22;38377;47.418;18.882;2023-04-15T12:39:04;11.10;99.90
38380;DHT22;38377;47.418;18.882;2023-04-15T12:41:31;11.20;99.90
38380;DHT22;38377;47.418;18.882;2023-04-15T12:43:57;11.20;99.90
38380;DHT22;38377;47.418;18.882;2023-04-15T12:46:23;11.20;99.90
38380;DHT22;38377;47.418;18.882;2023-04-15T12:48:49;11.20;99.90
38380;DHT22;38377;47.418;18.882;2023-04-15T12:51:16;11.20;99.90
38380;DHT22;38377;47.418;18.882;2023-04-15T12:53:42;11.20;99.90
38380;DHT22;38377;47.418;18.882;2023-04-15T12:56:08;11.20;99.90
38380;DHT22;38377;47.418;18.882;2023-04-15T12:58:33;11.10;99.90
38380;DHT22;38377;47.418;18.882;2023-04-15T13:00:59;11.10;99.90
38380;DHT22;38377;47.418;18.882;2023-04-15T13:03:25;11.10;99.90
38380;DHT22;38377;47.418;18.882;2023-04-15T13:05:50;11.00;99.90
38380;DHT22;38377;47.418;18.882;2023-04-15T13:08:17;10.80;99.90
38380;DHT22;38377;47.418;18.882;2023-04-15T13:10:43;10.70;99.90
38380;DHT22;38377;47.418;18.882;2023-04-15T13:13:08;10.50;99.90
38380;DHT22;38377;47.418;18.882;2023-04-15T13:15:34;10.50;99.90
38380;DHT22;38377;47.418;18.882;2023-04-15T13:18:00;10.50;99.90
38380;DHT22;38377;47.418;18.882;2023-04-15T13:20:26;10.60;99.90
38380;DHT22;38377;47.418;18.882;2023-04-15T13:22:52;10.90;99.90
38380;DHT22;38377;47.418;18.882;2023-04-15T13:25:18;11.20;99.90
38380;DHT22;38377;47.418;18.882;2023-04-15T13:27:44;11.40;99.90
38380;DHT22;38377;47.418;18.882;2023-04-15T13:30:11;11.60;99.90
38380;DHT22;38377;47.418;18.882;2023-04-15T13:32:37;11.60;99.90
38380;DHT22;38377;47.418;18.882;2023-04-15T13:35:03;11.80;99.90
38380;DHT22;38377;47.418;18.882;2023-04-15T13:37:29;11.90;99.90
38380;DHT22;38377;47.418;18.882;2023-04-15T13:39:55;12.00;99.90
38380;DHT22;38377;47.418;18.882;2023-04-15T13:42:22;12.40;99.90
38380;DHT22;38377;47.418;18.882;2023-04-15T13:44:49;12.80;99.90
38380;DHT22;38377;47.418;18.882;2023-04-15T13:47:16;12.60;99.90
38380;DHT22;38377;47.418;18.882;2023-04-15T13:49:42;12.40;99.90
38380;DHT22;38377;47.418;18.882;2023-04-15T13:52:08;12.30;99.90
38380;DHT22;38377;47.418;18.882;2023-04-15T13:54:34;12.20;99.90
38380;DHT22;38377;47.418;18.882;2023-04-15T13:56:59;12.20;99.90
38380;DHT22;38377;47.418;18.882;2023-04-15T13:59:26;12.40;99.90
38380;DHT22;38377;47.418;18.882;2023-04-15T14:01:52;12.50;99.90
38380;DHT22;38377;47.418;18.882;2023-04-15T14:04:17;12.40;99.90
38380;DHT22;38377;47.418;18.882;2023-04-15T14:06:43;12.20;99.90
38380;DHT22;38377;47.418;18.882;2023-04-15T14:09:09;12.10;99.90
38380;DHT22;38377;47.418;18.882;2023-04-15T14:11:37;11.90;99.90
38380;DHT22;38377;47.418;18.882;2023-04-15T14:14:04;11.80;99.90
38380;DHT22;38377;47.418;18.882;2023-04-15T14:16:35;11.70;99.90
38380;DHT22;38377;47.418;18.882;2023-04-15T14:19:01;11.70;99.90
38380;DHT22;38377;47.418;18.882;2023-04-15T14:21:27;11.70;99.90
38380;DHT22;38377;47.418;18.882;2023-04-15T14:23:54;11.60;99.90
38380;DHT22;38377;47.418;18.882;2023-04-15T14:26:20;11.60;99.90
38380;DHT22;38377;47.418;18.882;2023-04-15T14:28:45;11.60;99.90
38380;DHT22;38377;47.418;18.882;2023-04-15T14:31:12;11.70;99.90
38380;DHT22;38377;47.418;18.882;2023-04-15T14:33:38;11.80;99.90
38380;DHT22;38377;47.418;18.882;2023-04-15T14:36:05;11.90;99.90
38380;DHT22;38377;47.418;18.882;2023-04-15T14:38:33;11.90;99.90
38380;DHT22;38377;47.418;18.882;2023-04-15T14:41:03;11.90;99.90
38380;DHT22;38377;47.418;18.882;2023-04-15T14:43:29;11.90;99.90
38380;DHT22;38377;47.418;18.882;2023-04-15T14:45:54;11.70;99.90
38380;DHT22;38377;47.418;18.882;2023-04-15T14:48:20;11.70;99.90
38380;DHT22;38377;47.418;18.882;2023-04-15T14:50:46;11.70;99.90
38380;DHT22;38377;47.418;18.882;2023-04-15T14:53:12;11.60;99.90
38380;DHT22;38377;47.418;18.882;2023-04-15T14:55:37;11.60;99.90
38380;DHT22;38377;47.418;18.882;2023-04-15T14:58:03;11.50;99.90
38380;DHT22;38377;47.418;18.882;2023-04-15T15:00:29;11.40;99.90
38380;DHT22;38377;47.418;18.882;2023-04-15T15:02:55;11.40;99.90
38380;DHT22;38377;47.418;18.882;2023-04-15T15:05:21;11.40;99.90
38380;DHT22;38377;47.418;18.882;2023-04-15T15:07:46;11.30;99.90
38380;DHT22;38377;47.418;18.882;2023-04-15T15:10:12;11.20;99.90
38380;DHT22;38377;47.418;18.882;2023-04-15T15:12:38;11.10;99.90
38380;DHT22;38377;47.418;18.882;2023-04-15T15:15:04;11.00;99.90
38380;DHT22;38377;47.418;18.882;2023-04-15T15:17:30;11.00;99.90
38380;DHT22;38377;47.418;18.882;2023-04-15T15:19:56;11.00;99.90
38380;DHT22;38377;47.418;18.882;2023-04-15T15:22:22;11.00;99.90
38380;DHT22;38377;47.418;18.882;2023-04-15T15:24:47;11.00;99.90
38380;DHT22;38377;47.418;18.882;2023-04-15T15:27:13;10.90;99.90
38380;DHT22;38377;47.418;18.882;2023-04-15T15:29:39;10.80;99.90
38380;DHT22;38377;47.418;18.882;2023-04-15T15:32:05;10.60;99.90
38380;DHT22;38377;47.418;18.882;2023-04-15T15:34:30;10.40;99.90
38380;DHT22;38377;47.418;18.882;2023-04-15T15:36:56;10.20;99.90
38380;DHT22;38377;47.418;18.882;2023-04-15T15:39:22;10.00;99.90